This is the latest recevied weather packets stored in our database for station/object KC3QJO. If no packets are shown the sender has not sent any weather packets the latest 10 day(s).
| Time | Temp. | Humidity | Pressure | Rain* | Wind** | Luminosity | Snow |
|---|---|---|---|---|---|---|---|
| 1777897554 | 10.56° C | 49% | 1012.9 hPa | 0 mm | - | 232 W/m² | - |
| 1777896357 | 11.11° C | 50% | 1012.8 hPa | 0 mm | - | 309 W/m² | - |
| 1777894850 | 9.44° C | 55% | 1012.8 hPa | 0 mm | - | 236 W/m² | - |
| 1777894551 | 8.89° C | 57% | 1012.8 hPa | 0 mm | - | 221 W/m² | - |
| 1777894255 | 8.89° C | 58% | 1012.7 hPa | 0 mm | - | 206 W/m² | - |
| 1777893051 | 8.89° C | 56% | 1012.9 hPa | 0 mm | - | 151 W/m² | - |
| 1777892459 | 7.78° C | 58% | 1012.7 hPa | 0 mm | - | 125 W/m² | - |
| 1777887651 | 7.22° C | 57% | 1012.4 hPa | 0 mm | - | 0 W/m² | - |
| 1777887357 | 7.22° C | 57% | 1012.5 hPa | 0 mm | - | 0 W/m² | - |
| 1777885866 | 7.22° C | 55% | 1012.5 hPa | 0 mm | - | 0 W/m² | - |
| 1777884650 | 7.78° C | 56% | 1012.4 hPa | 0 mm | - | 0 W/m² | - |
| 1777882555 | 7.78° C | 54% | 1012.4 hPa | 0 mm | - | 0 W/m² | - |
| 1777881662 | 7.78° C | 54% | 1012.4 hPa | 0 mm | - | 0 W/m² | - |
| 1777880452 | 7.78° C | 54% | 1012.4 hPa | 0 mm | - | 0 W/m² | - |
| 1777878053 | 8.33° C | 52% | 1012.3 hPa | 0 mm | - | 0 W/m² | - |
| 1777877752 | 8.33° C | 52% | 1012.3 hPa | 0 mm | - | 0 W/m² | - |
| 1777876553 | 8.33° C | 52% | 1012.4 hPa | 0 mm | - | 0 W/m² | - |
| 1777875356 | 8.33° C | 51% | 1012.4 hPa | 0 mm | - | 0 W/m² | - |
| 1777869954 | 8.89° C | 51% | 1012.2 hPa | 0 mm | - | 0 W/m² | - |
| 1777865153 | 9.44° C | 47% | 1011.6 hPa | 0 mm | - | 0 W/m² | - |
| 1777863353 | 10° C | 45% | 1011.5 hPa | 0 mm | - | 0 W/m² | - |
| 1777861857 | 10° C | 45% | 1011.6 hPa | 0 mm | - | 0 W/m² | - |
| 1777861551 | 10° C | 45% | 1011.6 hPa | 0 mm | - | 0 W/m² | - |
| 1777860099 | 10.56° C | 44% | 1011.5 hPa | 0 mm | - | 0 W/m² | - |
| 1777856752 | 11.67° C | 40% | 1011.2 hPa | 0 mm | - | 0 W/m² | - |
* Rain latest hour (hover to see other rain measurements)
** Current wind speed in m/s (hover to see current wind gust speed)